createdAt,value
2018-03-18T00:00:31.077Z,42.10
2018-03-18T00:02:58.602Z,42.10
2018-03-18T00:05:26.661Z,42.40
2018-03-18T00:20:54.694Z,43.00
2018-03-18T00:23:27.272Z,44.70
2018-03-18T00:25:59.264Z,43.30
2018-03-18T00:28:27.552Z,43.30
2018-03-18T00:30:55.060Z,43.30
2018-03-18T00:33:23.122Z,43.60
2018-03-18T00:35:50.659Z,43.60
2018-03-18T00:38:18.937Z,41.40
2018-03-18T00:40:47.064Z,40.90
2018-03-18T00:43:14.808Z,42.90
2018-03-18T00:45:42.338Z,43.50
2018-03-18T00:48:09.885Z,42.10
2018-03-18T00:50:37.422Z,42.00
2018-03-18T00:53:07.053Z,42.40
2018-03-18T00:55:34.578Z,42.40
2018-03-18T00:58:02.887Z,44.20
2018-03-18T01:00:30.826Z,44.00
2018-03-18T01:03:02.677Z,42.80
2018-03-18T01:05:30.742Z,43.40
2018-03-18T01:07:58.304Z,43.30
2018-03-18T01:10:25.814Z,42.60
2018-03-18T01:12:53.324Z,42.50
2018-03-18T01:15:20.865Z,43.30
2018-03-18T01:17:53.277Z,42.70
2018-03-18T01:20:21.562Z,42.70
2018-03-18T01:22:49.846Z,42.50
2018-03-18T01:25:20.104Z,42.50
2018-03-18T01:27:47.637Z,42.50
2018-03-18T01:30:15.734Z,42.50
2018-03-18T01:32:43.258Z,43.00
2018-03-18T01:35:15.680Z,42.50
2018-03-18T01:37:47.896Z,43.10
2018-03-18T01:40:16.346Z,43.20
2018-03-18T01:42:44.285Z,43.20
2018-03-18T01:45:16.656Z,43.40
2018-03-18T01:47:44.438Z,43.60
2018-03-18T01:50:15.912Z,43.00
2018-03-18T01:52:55.358Z,42.70
2018-03-18T01:55:24.714Z,42.90
2018-03-18T01:57:56.101Z,44.30
2018-03-18T02:00:27.673Z,43.90
2018-03-18T02:02:57.194Z,42.90
2018-03-18T02:05:29.080Z,43.60
2018-03-18T02:07:57.053Z,43.60
2018-03-18T02:10:24.566Z,43.20
2018-03-18T02:12:57.473Z,43.50
2018-03-18T02:15:25.752Z,42.80
2018-03-18T02:17:57.027Z,42.80
2018-03-18T02:20:24.541Z,43.20
2018-03-18T02:22:56.166Z,43.70
2018-03-18T02:25:23.697Z,43.60
2018-03-18T02:27:51.216Z,42.60
2018-03-18T02:30:20.381Z,44.00
2018-03-18T02:32:47.905Z,44.00
2018-03-18T02:35:15.856Z,42.80
2018-03-18T02:37:43.377Z,43.10
2018-03-18T02:40:10.893Z,43.10
2018-03-18T02:42:38.802Z,43.00
2018-03-18T02:45:06.456Z,44.00
2018-03-18T02:47:38.560Z,43.90
2018-03-18T02:50:07.404Z,43.30
2018-03-18T03:02:20.549Z,43.30
2018-03-18T03:04:48.829Z,45.70
2018-03-18T03:07:16.659Z,45.60
2018-03-18T03:09:44.186Z,44.80
2018-03-18T03:12:12.158Z,44.40
2018-03-18T03:14:39.671Z,44.50
2018-03-18T03:17:08.910Z,44.00
2018-03-18T03:19:36.856Z,43.90
2018-03-18T03:22:04.367Z,43.80
2018-03-18T03:24:35.760Z,43.30
2018-03-18T03:27:09.535Z,43.90
2018-03-18T03:29:37.062Z,43.90
2018-03-18T03:32:08.857Z,43.90
2018-03-18T03:34:36.376Z,44.00
2018-03-18T03:37:04.493Z,44.40
2018-03-18T03:39:32.132Z,44.80
2018-03-18T03:42:02.191Z,44.20
2018-03-18T03:44:32.039Z,43.30
2018-03-18T03:47:00.409Z,43.30
2018-03-18T03:49:27.918Z,44.20
2018-03-18T03:51:55.436Z,43.90
2018-03-18T03:54:26.960Z,45.10
2018-03-18T03:56:55.264Z,43.50
2018-03-18T03:59:23.363Z,44.20
2018-03-18T04:01:51.717Z,43.80
2018-03-18T04:17:20.597Z,43.80
2018-03-18T04:32:52.608Z,45.90
2018-03-18T04:35:25.518Z,46.00
2018-03-18T04:37:57.155Z,45.90
2018-03-18T04:40:25.909Z,45.30
2018-03-18T04:42:54.244Z,45.20
2018-03-18T04:45:21.796Z,44.60
2018-03-18T04:47:49.350Z,43.80
2018-03-18T04:50:18.252Z,44.70
2018-03-18T04:52:46.825Z,44.30
2018-03-18T04:55:15.111Z,44.10
2018-03-18T04:57:42.824Z,43.70
2018-03-18T05:00:11.985Z,44.40
2018-03-18T05:02:39.561Z,43.80
2018-03-18T05:05:11.743Z,44.30
2018-03-18T05:07:39.857Z,45.20
2018-03-18T05:10:09.745Z,43.90
2018-03-18T05:12:37.257Z,43.90
2018-03-18T05:15:10.564Z,43.90
2018-03-18T05:17:38.072Z,43.50
2018-03-18T05:20:10.516Z,44.40
2018-03-18T05:22:38.047Z,44.30
2018-03-18T05:25:06.233Z,43.80
2018-03-18T05:37:23.836Z,43.80
2018-03-18T05:39:51.352Z,44.80
2018-03-18T05:42:20.076Z,44.00
2018-03-18T05:44:47.592Z,44.00
2018-03-18T05:47:15.900Z,43.20
2018-03-18T05:49:46.914Z,43.10
2018-03-18T05:52:15.189Z,42.80
2018-03-18T05:54:43.485Z,43.10
2018-03-18T05:57:11.471Z,43.00
2018-03-18T05:59:42.875Z,43.30
2018-03-18T06:02:11.167Z,43.70
2018-03-18T06:04:38.797Z,43.70
2018-03-18T06:07:06.434Z,43.00
2018-03-18T06:09:34.701Z,43.50
2018-03-18T06:12:03.158Z,42.20
2018-03-18T06:14:30.681Z,41.60
2018-03-18T06:16:59.021Z,42.10
2018-03-18T06:19:26.537Z,41.70
2018-03-18T06:21:58.470Z,42.10
2018-03-18T06:24:26.948Z,41.30
2018-03-18T06:26:54.648Z,41.70
2018-03-18T06:29:29.266Z,41.00
2018-03-18T06:31:57.681Z,40.80
2018-03-18T06:34:25.472Z,40.80
2018-03-18T06:36:57.861Z,40.60
2018-03-18T06:39:25.379Z,41.00
2018-03-18T06:41:53.382Z,40.80
2018-03-18T06:44:21.666Z,41.00
2018-03-18T06:46:49.198Z,39.50
2018-03-18T06:49:18.155Z,40.00
2018-03-18T06:51:47.025Z,38.30
2018-03-18T06:54:15.461Z,38.30
2018-03-18T06:56:43.647Z,38.00
2018-03-18T06:59:11.205Z,38.70
2018-03-18T07:01:38.855Z,38.60
2018-03-18T07:04:10.374Z,36.90
2018-03-18T07:06:38.706Z,37.30
2018-03-18T07:09:06.360Z,37.20
2018-03-18T07:11:42.667Z,36.60
2018-03-18T07:14:11.922Z,37.10
2018-03-18T07:16:39.447Z,36.80
2018-03-18T07:19:08.481Z,34.40
2018-03-18T07:21:35.989Z,34.40
2018-03-18T07:24:04.973Z,32.00
2018-03-18T07:26:33.605Z,31.10
2018-03-18T07:29:01.135Z,30.60
2018-03-18T07:31:30.151Z,31.10
2018-03-18T07:33:57.688Z,31.10
2018-03-18T07:36:25.978Z,29.40
2018-03-18T07:38:53.489Z,29.40
2018-03-18T07:41:29.393Z,29.80
2018-03-18T07:44:01.281Z,29.70
2018-03-18T07:46:29.617Z,29.40
2018-03-18T07:48:58.281Z,28.80
2018-03-18T07:51:27.729Z,28.80
2018-03-18T07:53:56.474Z,27.90
2018-03-18T07:56:28.759Z,27.40
2018-03-18T07:58:57.417Z,27.00
2018-03-18T08:01:25.697Z,26.50
2018-03-18T08:03:53.222Z,26.50
2018-03-18T08:06:25.221Z,26.80
2018-03-18T08:08:52.737Z,27.00
2018-03-18T08:11:24.607Z,27.20
2018-03-18T08:13:56.108Z,26.60
2018-03-18T08:16:24.062Z,25.50
2018-03-18T08:18:51.682Z,26.20
2018-03-18T08:21:20.654Z,25.40
2018-03-18T08:23:48.885Z,24.70
2018-03-18T08:32:03.332Z,24.00
2018-03-18T08:34:30.853Z,24.40
2018-03-18T08:36:58.402Z,23.40
2018-03-18T08:49:10.944Z,23.60
2018-03-18T08:51:38.601Z,24.10
2018-03-18T08:54:06.113Z,25.00
2018-03-18T08:56:33.613Z,24.10
2018-03-18T08:59:05.672Z,24.30
2018-03-18T09:01:33.200Z,23.90
2018-03-18T09:04:02.262Z,23.30
2018-03-18T09:06:30.500Z,23.30
2018-03-18T09:08:58.032Z,23.20
2018-03-18T09:11:26.108Z,24.60
2018-03-18T09:13:54.378Z,25.30
2018-03-18T09:16:21.892Z,25.20
2018-03-18T09:18:49.392Z,24.60
2018-03-18T09:21:17.366Z,23.60
2018-03-18T09:23:44.879Z,23.10
2018-03-18T09:26:13.728Z,23.50
2018-03-18T09:28:42.064Z,22.60
2018-03-18T09:31:10.832Z,22.60
2018-03-18T09:33:42.718Z,23.40
2018-03-18T09:36:11.045Z,23.40
2018-03-18T09:38:44.738Z,23.40
2018-03-18T09:41:13.158Z,23.30
2018-03-18T09:43:44.569Z,23.20
2018-03-18T09:46:12.862Z,22.80
2018-03-18T09:48:44.253Z,22.80
2018-03-18T09:51:11.789Z,22.40
2018-03-18T09:53:39.401Z,21.70
2018-03-18T09:56:07.688Z,21.40
2018-03-18T09:58:36.894Z,21.80
2018-03-18T10:01:05.373Z,22.40
2018-03-18T10:03:33.792Z,23.70
2018-03-18T10:08:31.140Z,23.70
2018-03-18T10:10:59.494Z,23.00
2018-03-18T10:13:27.782Z,21.80
2018-03-18T10:15:56.410Z,21.40
2018-03-18T10:18:24.041Z,22.00
2018-03-18T10:20:52.318Z,19.50
2018-03-18T10:23:20.608Z,22.20
2018-03-18T10:25:48.618Z,22.20
2018-03-18T10:28:20.790Z,22.30
2018-03-18T10:30:48.286Z,22.90
2018-03-18T10:33:16.586Z,22.50
2018-03-18T10:35:44.097Z,22.50
2018-03-18T10:40:40.607Z,22.30
2018-03-18T10:43:08.468Z,23.80
2018-03-18T10:45:39.972Z,21.70
2018-03-18T10:48:07.509Z,23.10
2018-03-18T10:50:35.005Z,22.60
2018-03-18T10:53:03.598Z,22.40
2018-03-18T10:55:32.688Z,22.70
2018-03-18T10:58:01.020Z,22.00
2018-03-18T11:00:34.907Z,22.00
2018-03-18T11:03:02.431Z,21.50
2018-03-18T11:05:30.726Z,21.50
2018-03-18T11:07:58.260Z,21.40
2018-03-18T11:12:55.568Z,21.80
2018-03-18T11:15:23.097Z,22.70
2018-03-18T11:17:50.691Z,22.90
2018-03-18T11:22:47.362Z,23.50
2018-03-18T11:25:14.893Z,23.00
2018-03-18T11:27:42.412Z,23.40
2018-03-18T11:32:38.807Z,24.10
2018-03-18T11:37:35.253Z,22.80
2018-03-18T11:40:03.521Z,22.60
2018-03-18T11:42:31.810Z,22.80
2018-03-18T11:44:59.734Z,22.80
2018-03-18T11:47:27.262Z,23.50
2018-03-18T11:49:55.280Z,22.10
2018-03-18T11:52:22.838Z,22.90
2018-03-18T11:54:50.364Z,21.10
2018-03-18T11:57:17.966Z,22.60
2018-03-18T11:59:46.273Z,20.80
2018-03-18T12:02:13.856Z,20.80
2018-03-18T12:04:41.432Z,20.30
2018-03-18T12:07:23.199Z,22.10
2018-03-18T12:10:02.141Z,21.80
2018-03-18T12:12:29.677Z,21.70
2018-03-18T12:14:58.679Z,21.60
2018-03-18T12:17:26.228Z,21.40
2018-03-18T12:19:53.766Z,20.30
2018-03-18T12:22:22.076Z,20.00
2018-03-18T12:24:50.497Z,19.90
2018-03-18T12:29:46.917Z,19.80
2018-03-18T12:32:14.431Z,19.10
2018-03-18T12:34:42.773Z,19.50
2018-03-18T12:37:11.720Z,19.40
2018-03-18T12:39:51.043Z,20.50
2018-03-18T12:42:31.213Z,20.20
2018-03-18T12:44:58.838Z,20.20
2018-03-18T12:47:27.147Z,20.70
2018-03-18T12:49:54.726Z,20.60
2018-03-18T12:52:22.857Z,19.80
2018-03-18T12:54:50.916Z,20.10
2018-03-18T12:57:22.819Z,20.70
2018-03-18T13:00:00.198Z,20.20
2018-03-18T13:02:28.499Z,20.60
2018-03-18T13:07:26.425Z,20.50
2018-03-18T13:09:55.456Z,22.30
2018-03-18T13:17:36.618Z,22.70
2018-03-18T13:22:33.955Z,23.10
2018-03-18T13:27:30.406Z,22.40
2018-03-18T13:29:58.549Z,20.00
2018-03-18T13:32:30.810Z,19.00
2018-03-18T13:34:58.831Z,19.30
2018-03-18T13:37:26.784Z,18.80
2018-03-18T13:39:54.671Z,18.90
2018-03-18T13:42:22.795Z,18.80
2018-03-18T13:44:50.326Z,20.20
2018-03-18T13:52:21.263Z,20.00
2018-03-18T13:54:48.793Z,18.80
2018-03-18T13:59:45.846Z,17.90
2018-03-18T14:04:43.562Z,18.70
2018-03-18T21:11:43.898Z,18.60
2018-03-18T21:14:11.403Z,32.80
2018-03-18T21:16:38.954Z,32.40
2018-03-18T21:19:07.256Z,32.20
2018-03-18T21:21:34.768Z,32.20
2018-03-18T21:24:02.310Z,33.00
2018-03-18T21:26:30.294Z,32.10
2018-03-18T21:28:57.827Z,32.00
2018-03-18T21:31:25.361Z,32.80
2018-03-18T21:33:52.884Z,32.40
2018-03-18T21:36:21.191Z,32.50
2018-03-18T21:38:48.722Z,32.50
2018-03-18T21:41:17.058Z,32.60
2018-03-18T21:43:44.582Z,32.60
2018-03-18T21:46:12.818Z,32.00
2018-03-18T21:48:41.402Z,33.20
2018-03-18T21:51:09.439Z,32.20
2018-03-18T21:53:36.964Z,32.80
2018-03-18T21:56:05.257Z,33.50
2018-03-18T21:58:32.790Z,33.50
2018-03-18T22:01:01.159Z,32.70
2018-03-18T22:03:28.790Z,32.70
2018-03-18T22:05:56.386Z,32.50
2018-03-18T22:08:28.946Z,33.00
2018-03-18T22:10:56.481Z,32.80
2018-03-18T22:13:24.063Z,32.80
2018-03-18T22:28:51.665Z,33.90
2018-03-18T22:31:19.207Z,34.40
2018-03-18T22:33:47.525Z,34.50
2018-03-18T22:36:15.028Z,34.40
2018-03-18T22:38:43.314Z,34.20
2018-03-18T22:41:11.769Z,34.10
2018-03-18T22:43:39.284Z,34.00
2018-03-18T22:46:06.813Z,33.00
2018-03-18T22:48:35.139Z,33.40
2018-03-18T22:51:04.130Z,33.40
2018-03-18T22:53:31.695Z,33.70
2018-03-18T22:55:59.208Z,33.50
2018-03-18T22:58:28.521Z,33.50
2018-03-18T23:00:56.125Z,33.60
2018-03-18T23:03:23.717Z,34.00
2018-03-18T23:05:52.378Z,33.40
2018-03-18T23:08:19.918Z,34.00
2018-03-18T23:10:51.752Z,33.60
2018-03-18T23:13:19.336Z,33.60
2018-03-18T23:15:46.857Z,33.50
2018-03-18T23:18:15.267Z,33.90
2018-03-18T23:20:42.828Z,33.90
2018-03-18T23:23:10.410Z,33.10
2018-03-18T23:25:38.022Z,33.90
2018-03-18T23:28:06.294Z,34.70
2018-03-18T23:30:34.600Z,34.00
2018-03-18T23:33:02.128Z,34.00
2018-03-18T23:35:34.384Z,34.10
2018-03-18T23:38:01.918Z,34.10
2018-03-18T23:40:29.456Z,34.40
2018-03-18T23:42:57.049Z,34.50
2018-03-18T23:45:24.609Z,33.70
2018-03-18T23:47:52.180Z,34.40
2018-03-18T23:50:19.748Z,34.50
2018-03-18T23:52:47.357Z,34.50
2018-03-18T23:55:14.962Z,34.30
2018-03-18T23:57:42.510Z,34.10
